sensor_id;sensor_type;location;lat;lon;timestamp;P1;durP1;ratioP1;P2;durP2;ratioP2
67597;SDS011;62026;39.230;9.122;2022-07-29T00:00:56;5.72;;;1.50;;
67597;SDS011;62026;39.230;9.122;2022-07-29T00:03:22;5.78;;;1.42;;
67597;SDS011;62026;39.230;9.122;2022-07-29T00:05:48;9.02;;;1.80;;
67597;SDS011;62026;39.230;9.122;2022-07-29T00:08:15;8.45;;;1.80;;
67597;SDS011;62026;39.230;9.122;2022-07-29T00:10:41;8.48;;;1.50;;
67597;SDS011;62026;39.230;9.122;2022-07-29T00:13:07;7.65;;;1.40;;
67597;SDS011;62026;39.230;9.122;2022-07-29T00:15:33;8.57;;;1.80;;
67597;SDS011;62026;39.230;9.122;2022-07-29T00:18:00;6.38;;;1.23;;
67597;SDS011;62026;39.230;9.122;2022-07-29T00:20:26;7.43;;;1.50;;
67597;SDS011;62026;39.230;9.122;2022-07-29T00:22:52;5.38;;;1.80;;
67597;SDS011;62026;39.230;9.122;2022-07-29T00:25:18;5.53;;;1.40;;
67597;SDS011;62026;39.230;9.122;2022-07-29T00:27:44;6.15;;;1.60;;
67597;SDS011;62026;39.230;9.122;2022-07-29T00:30:14;6.97;;;1.63;;
67597;SDS011;62026;39.230;9.122;2022-07-29T00:32:40;10.02;;;1.77;;
67597;SDS011;62026;39.230;9.122;2022-07-29T00:35:06;10.15;;;2.10;;
67597;SDS011;62026;39.230;9.122;2022-07-29T00:37:51;8.00;;;1.60;;
67597;SDS011;62026;39.230;9.122;2022-07-29T00:40:18;6.97;;;1.80;;
67597;SDS011;62026;39.230;9.122;2022-07-29T00:42:45;3.42;;;1.35;;
67597;SDS011;62026;39.230;9.122;2022-07-29T00:45:14;5.40;;;1.80;;
67597;SDS011;62026;39.230;9.122;2022-07-29T00:47:41;4.90;;;1.55;;
67597;SDS011;62026;39.230;9.122;2022-07-29T00:50:08;6.85;;;1.55;;
67597;SDS011;62026;39.230;9.122;2022-07-29T00:52:37;4.47;;;1.52;;
67597;SDS011;62026;39.230;9.122;2022-07-29T00:55:06;7.55;;;1.88;;
67597;SDS011;62026;39.230;9.122;2022-07-29T00:57:38;6.78;;;1.75;;
67597;SDS011;62026;39.230;9.122;2022-07-29T01:00:07;8.75;;;1.70;;
67597;SDS011;62026;39.230;9.122;2022-07-29T01:02:36;7.57;;;2.08;;
67597;SDS011;62026;39.230;9.122;2022-07-29T01:05:03;5.40;;;1.80;;
67597;SDS011;62026;39.230;9.122;2022-07-29T01:07:31;7.75;;;1.70;;
67597;SDS011;62026;39.230;9.122;2022-07-29T01:10:01;5.68;;;1.95;;
67597;SDS011;62026;39.230;9.122;2022-07-29T01:12:31;6.57;;;1.63;;
67597;SDS011;62026;39.230;9.122;2022-07-29T01:15:00;6.18;;;1.67;;
67597;SDS011;62026;39.230;9.122;2022-07-29T01:26:04;7.50;;;1.75;;
67597;SDS011;62026;39.230;9.122;2022-07-29T01:29:09;6.07;;;1.70;;
67597;SDS011;62026;39.230;9.122;2022-07-29T01:31:56;5.50;;;1.75;;
67597;SDS011;62026;39.230;9.122;2022-07-29T01:34:42;6.43;;;2.00;;
67597;SDS011;62026;39.230;9.122;2022-07-29T01:37:26;4.22;;;1.70;;
67597;SDS011;62026;39.230;9.122;2022-07-29T01:40:13;10.02;;;1.90;;
67597;SDS011;62026;39.230;9.122;2022-07-29T01:42:50;4.70;;;1.75;;
67597;SDS011;62026;39.230;9.122;2022-07-29T01:45:26;5.35;;;1.77;;
67597;SDS011;62026;39.230;9.122;2022-07-29T01:48:04;10.68;;;2.10;;
67597;SDS011;62026;39.230;9.122;2022-07-29T01:51:14;7.93;;;1.60;;
67597;SDS011;62026;39.230;9.122;2022-07-29T01:56:24;8.27;;;2.08;;
67597;SDS011;62026;39.230;9.122;2022-07-29T01:58:54;9.02;;;2.00;;
67597;SDS011;62026;39.230;9.122;2022-07-29T02:01:23;5.45;;;2.10;;
67597;SDS011;62026;39.230;9.122;2022-07-29T02:03:51;6.13;;;2.00;;
67597;SDS011;62026;39.230;9.122;2022-07-29T02:06:21;6.57;;;1.90;;
67597;SDS011;62026;39.230;9.122;2022-07-29T02:08:49;7.90;;;2.15;;
67597;SDS011;62026;39.230;9.122;2022-07-29T02:11:17;7.80;;;2.25;;
67597;SDS011;62026;39.230;9.122;2022-07-29T02:13:43;7.43;;;2.20;;
67597;SDS011;62026;39.230;9.122;2022-07-29T02:16:11;7.55;;;2.00;;
67597;SDS011;62026;39.230;9.122;2022-07-29T02:18:40;6.88;;;1.65;;
67597;SDS011;62026;39.230;9.122;2022-07-29T02:21:12;7.28;;;2.03;;
67597;SDS011;62026;39.230;9.122;2022-07-29T02:23:46;5.10;;;1.90;;
67597;SDS011;62026;39.230;9.122;2022-07-29T02:26:16;6.63;;;1.98;;
67597;SDS011;62026;39.230;9.122;2022-07-29T02:28:45;8.95;;;1.85;;
67597;SDS011;62026;39.230;9.122;2022-07-29T02:31:13;9.55;;;2.55;;
67597;SDS011;62026;39.230;9.122;2022-07-29T02:33:43;9.23;;;2.90;;
67597;SDS011;62026;39.230;9.122;2022-07-29T02:36:13;9.90;;;2.42;;
67597;SDS011;62026;39.230;9.122;2022-07-29T02:38:42;7.22;;;2.10;;
67597;SDS011;62026;39.230;9.122;2022-07-29T02:41:40;7.13;;;2.05;;
67597;SDS011;62026;39.230;9.122;2022-07-29T02:44:10;9.77;;;2.47;;
67597;SDS011;62026;39.230;9.122;2022-07-29T02:57:34;5.18;;;2.33;;
67597;SDS011;62026;39.230;9.122;2022-07-29T03:00:12;7.70;;;2.33;;
67597;SDS011;62026;39.230;9.122;2022-07-29T03:02:42;9.25;;;2.20;;
67597;SDS011;62026;39.230;9.122;2022-07-29T03:05:16;7.35;;;2.17;;
67597;SDS011;62026;39.230;9.122;2022-07-29T03:07:53;11.48;;;2.33;;
67597;SDS011;62026;39.230;9.122;2022-07-29T03:10:27;5.95;;;2.17;;
67597;SDS011;62026;39.230;9.122;2022-07-29T03:12:55;5.03;;;1.80;;
67597;SDS011;62026;39.230;9.122;2022-07-29T03:15:23;6.55;;;2.15;;
67597;SDS011;62026;39.230;9.122;2022-07-29T03:17:51;8.77;;;2.28;;
67597;SDS011;62026;39.230;9.122;2022-07-29T03:20:19;6.63;;;2.42;;
67597;SDS011;62026;39.230;9.122;2022-07-29T03:22:45;6.88;;;2.05;;
67597;SDS011;62026;39.230;9.122;2022-07-29T03:25:12;10.48;;;2.50;;
67597;SDS011;62026;39.230;9.122;2022-07-29T03:27:41;6.57;;;2.00;;
67597;SDS011;62026;39.230;9.122;2022-07-29T03:30:08;8.52;;;2.13;;
67597;SDS011;62026;39.230;9.122;2022-07-29T03:32:36;8.63;;;2.20;;
67597;SDS011;62026;39.230;9.122;2022-07-29T03:35:03;8.70;;;2.58;;
67597;SDS011;62026;39.230;9.122;2022-07-29T03:37:31;11.25;;;2.90;;
67597;SDS011;62026;39.230;9.122;2022-07-29T03:39:58;9.40;;;2.40;;
67597;SDS011;62026;39.230;9.122;2022-07-29T03:42:30;8.48;;;2.58;;
67597;SDS011;62026;39.230;9.122;2022-07-29T03:45:00;7.77;;;2.60;;
67597;SDS011;62026;39.230;9.122;2022-07-29T03:47:32;9.27;;;2.70;;
67597;SDS011;62026;39.230;9.122;2022-07-29T03:50:05;9.93;;;2.70;;
67597;SDS011;62026;39.230;9.122;2022-07-29T03:52:35;9.00;;;2.60;;
67597;SDS011;62026;39.230;9.122;2022-07-29T03:55:02;11.80;;;3.08;;
67597;SDS011;62026;39.230;9.122;2022-07-29T03:57:29;11.60;;;3.50;;
67597;SDS011;62026;39.230;9.122;2022-07-29T03:59:58;12.52;;;3.50;;
67597;SDS011;62026;39.230;9.122;2022-07-29T04:02:29;10.93;;;2.92;;
67597;SDS011;62026;39.230;9.122;2022-07-29T04:04:56;16.38;;;3.25;;
67597;SDS011;62026;39.230;9.122;2022-07-29T04:07:23;10.80;;;3.20;;
67597;SDS011;62026;39.230;9.122;2022-07-29T04:09:49;9.27;;;3.35;;
67597;SDS011;62026;39.230;9.122;2022-07-29T04:12:15;11.73;;;3.15;;
67597;SDS011;62026;39.230;9.122;2022-07-29T04:14:42;8.25;;;3.00;;
67597;SDS011;62026;39.230;9.122;2022-07-29T04:17:08;8.77;;;3.60;;
67597;SDS011;62026;39.230;9.122;2022-07-29T04:19:34;7.90;;;2.63;;
67597;SDS011;62026;39.230;9.122;2022-07-29T04:22:00;8.20;;;2.70;;
67597;SDS011;62026;39.230;9.122;2022-07-29T04:24:27;11.85;;;3.00;;
67597;SDS011;62026;39.230;9.122;2022-07-29T04:26:53;9.93;;;3.13;;
67597;SDS011;62026;39.230;9.122;2022-07-29T04:29:19;7.20;;;2.55;;
67597;SDS011;62026;39.230;9.122;2022-07-29T04:31:46;8.18;;;2.85;;
67597;SDS011;62026;39.230;9.122;2022-07-29T04:34:12;10.88;;;2.65;;
67597;SDS011;62026;39.230;9.122;2022-07-29T04:36:38;9.20;;;2.47;;
67597;SDS011;62026;39.230;9.122;2022-07-29T04:39:04;10.20;;;2.55;;
67597;SDS011;62026;39.230;9.122;2022-07-29T04:41:30;8.23;;;2.50;;
67597;SDS011;62026;39.230;9.122;2022-07-29T04:43:56;9.73;;;2.17;;
67597;SDS011;62026;39.230;9.122;2022-07-29T04:46:22;6.95;;;2.25;;
67597;SDS011;62026;39.230;9.122;2022-07-29T04:48:48;6.25;;;2.42;;
67597;SDS011;62026;39.230;9.122;2022-07-29T04:51:15;8.57;;;2.05;;
67597;SDS011;62026;39.230;9.122;2022-07-29T04:53:41;8.48;;;2.30;;
67597;SDS011;62026;39.230;9.122;2022-07-29T04:56:07;6.93;;;2.10;;
67597;SDS011;62026;39.230;9.122;2022-07-29T04:58:36;9.40;;;2.08;;
67597;SDS011;62026;39.230;9.122;2022-07-29T05:01:03;7.53;;;2.55;;
67597;SDS011;62026;39.230;9.122;2022-07-29T05:03:29;6.53;;;1.90;;
67597;SDS011;62026;39.230;9.122;2022-07-29T05:05:55;9.55;;;2.15;;
67597;SDS011;62026;39.230;9.122;2022-07-29T05:08:21;10.48;;;2.00;;
67597;SDS011;62026;39.230;9.122;2022-07-29T05:10:48;7.25;;;2.17;;
67597;SDS011;62026;39.230;9.122;2022-07-29T05:13:14;7.43;;;2.00;;
67597;SDS011;62026;39.230;9.122;2022-07-29T05:15:40;8.85;;;2.20;;
67597;SDS011;62026;39.230;9.122;2022-07-29T05:18:06;5.78;;;1.90;;
67597;SDS011;62026;39.230;9.122;2022-07-29T05:20:32;8.23;;;2.20;;
67597;SDS011;62026;39.230;9.122;2022-07-29T05:23:00;10.05;;;2.10;;
67597;SDS011;62026;39.230;9.122;2022-07-29T05:25:28;9.65;;;2.10;;
67597;SDS011;62026;39.230;9.122;2022-07-29T05:27:55;9.90;;;1.90;;
67597;SDS011;62026;39.230;9.122;2022-07-29T05:30:21;10.02;;;1.83;;
67597;SDS011;62026;39.230;9.122;2022-07-29T05:32:47;10.82;;;2.20;;
67597;SDS011;62026;39.230;9.122;2022-07-29T05:35:14;8.85;;;1.80;;
67597;SDS011;62026;39.230;9.122;2022-07-29T05:37:41;9.13;;;2.20;;
67597;SDS011;62026;39.230;9.122;2022-07-29T05:40:07;7.43;;;1.92;;
67597;SDS011;62026;39.230;9.122;2022-07-29T05:42:34;9.60;;;1.70;;
67597;SDS011;62026;39.230;9.122;2022-07-29T05:45:00;6.20;;;1.70;;
67597;SDS011;62026;39.230;9.122;2022-07-29T05:47:28;6.95;;;2.08;;
67597;SDS011;62026;39.230;9.122;2022-07-29T05:49:54;6.82;;;1.95;;
67597;SDS011;62026;39.230;9.122;2022-07-29T05:52:20;8.07;;;2.05;;
67597;SDS011;62026;39.230;9.122;2022-07-29T05:54:47;6.88;;;2.20;;
67597;SDS011;62026;39.230;9.122;2022-07-29T05:57:17;6.38;;;2.22;;
67597;SDS011;62026;39.230;9.122;2022-07-29T05:59:44;6.95;;;1.90;;
67597;SDS011;62026;39.230;9.122;2022-07-29T06:02:11;7.20;;;1.80;;
67597;SDS011;62026;39.230;9.122;2022-07-29T06:04:38;6.47;;;2.30;;
67597;SDS011;62026;39.230;9.122;2022-07-29T06:07:04;7.18;;;2.15;;
67597;SDS011;62026;39.230;9.122;2022-07-29T06:09:30;7.20;;;1.92;;
67597;SDS011;62026;39.230;9.122;2022-07-29T06:11:56;8.43;;;1.83;;
67597;SDS011;62026;39.230;9.122;2022-07-29T06:14:23;7.68;;;2.15;;
67597;SDS011;62026;39.230;9.122;2022-07-29T06:16:50;9.43;;;2.13;;
67597;SDS011;62026;39.230;9.122;2022-07-29T06:19:16;6.82;;;2.03;;
67597;SDS011;62026;39.230;9.122;2022-07-29T06:21:43;6.38;;;2.65;;
67597;SDS011;62026;39.230;9.122;2022-07-29T06:24:10;4.57;;;2.03;;
67597;SDS011;62026;39.230;9.122;2022-07-29T06:26:38;6.28;;;1.90;;
67597;SDS011;62026;39.230;9.122;2022-07-29T06:29:06;7.60;;;2.38;;
67597;SDS011;62026;39.230;9.122;2022-07-29T06:31:33;5.95;;;1.98;;
67597;SDS011;62026;39.230;9.122;2022-07-29T06:33:59;13.20;;;2.33;;
67597;SDS011;62026;39.230;9.122;2022-07-29T06:36:25;9.80;;;2.42;;
67597;SDS011;62026;39.230;9.122;2022-07-29T06:38:51;9.18;;;2.35;;
67597;SDS011;62026;39.230;9.122;2022-07-29T06:41:17;9.55;;;2.30;;
67597;SDS011;62026;39.230;9.122;2022-07-29T06:43:44;8.65;;;2.03;;
67597;SDS011;62026;39.230;9.122;2022-07-29T06:46:14;7.10;;;1.77;;
67597;SDS011;62026;39.230;9.122;2022-07-29T06:48:44;11.30;;;2.10;;
67597;SDS011;62026;39.230;9.122;2022-07-29T06:51:12;10.77;;;1.90;;
67597;SDS011;62026;39.230;9.122;2022-07-29T06:53:39;7.05;;;1.90;;
67597;SDS011;62026;39.230;9.122;2022-07-29T06:56:06;8.23;;;2.65;;
67597;SDS011;62026;39.230;9.122;2022-07-29T06:58:38;7.53;;;2.30;;
67597;SDS011;62026;39.230;9.122;2022-07-29T07:01:05;8.35;;;2.28;;
67597;SDS011;62026;39.230;9.122;2022-07-29T07:03:32;10.65;;;2.53;;
67597;SDS011;62026;39.230;9.122;2022-07-29T07:05:58;8.32;;;2.08;;
67597;SDS011;62026;39.230;9.122;2022-07-29T07:08:24;6.75;;;2.25;;
67597;SDS011;62026;39.230;9.122;2022-07-29T07:10:51;6.38;;;2.08;;
67597;SDS011;62026;39.230;9.122;2022-07-29T07:13:18;13.65;;;2.35;;
67597;SDS011;62026;39.230;9.122;2022-07-29T07:15:44;17.15;;;2.30;;
67597;SDS011;62026;39.230;9.122;2022-07-29T07:18:12;9.32;;;2.13;;
67597;SDS011;62026;39.230;9.122;2022-07-29T07:20:40;16.25;;;2.40;;
67597;SDS011;62026;39.230;9.122;2022-07-29T07:23:06;9.15;;;2.38;;
67597;SDS011;62026;39.230;9.122;2022-07-29T07:25:32;11.07;;;2.10;;
67597;SDS011;62026;39.230;9.122;2022-07-29T07:27:59;8.40;;;2.13;;
67597;SDS011;62026;39.230;9.122;2022-07-29T07:30:26;7.10;;;2.55;;
67597;SDS011;62026;39.230;9.122;2022-07-29T07:32:53;9.63;;;2.55;;
67597;SDS011;62026;39.230;9.122;2022-07-29T07:35:20;11.20;;;2.90;;
67597;SDS011;62026;39.230;9.122;2022-07-29T07:37:47;10.70;;;2.55;;
67597;SDS011;62026;39.230;9.122;2022-07-29T07:40:13;10.07;;;2.60;;
67597;SDS011;62026;39.230;9.122;2022-07-29T07:42:40;10.43;;;2.70;;
67597;SDS011;62026;39.230;9.122;2022-07-29T07:45:06;10.80;;;2.58;;
67597;SDS011;62026;39.230;9.122;2022-07-29T07:47:37;6.63;;;2.00;;
67597;SDS011;62026;39.230;9.122;2022-07-29T07:50:05;6.97;;;2.03;;
67597;SDS011;62026;39.230;9.122;2022-07-29T07:52:37;15.70;;;2.40;;
67597;SDS011;62026;39.230;9.122;2022-07-29T07:55:16;8.57;;;2.70;;
67597;SDS011;62026;39.230;9.122;2022-07-29T07:57:44;10.48;;;2.40;;
67597;SDS011;62026;39.230;9.122;2022-07-29T08:00:11;7.78;;;2.08;;
67597;SDS011;62026;39.230;9.122;2022-07-29T08:02:39;8.60;;;2.17;;
67597;SDS011;62026;39.230;9.122;2022-07-29T08:05:06;6.05;;;2.33;;
67597;SDS011;62026;39.230;9.122;2022-07-29T08:07:33;5.90;;;2.10;;
67597;SDS011;62026;39.230;9.122;2022-07-29T08:09:59;7.80;;;1.80;;
67597;SDS011;62026;39.230;9.122;2022-07-29T08:12:25;10.55;;;2.30;;
67597;SDS011;62026;39.230;9.122;2022-07-29T08:14:51;6.03;;;2.00;;
67597;SDS011;62026;39.230;9.122;2022-07-29T08:17:17;6.22;;;2.15;;
67597;SDS011;62026;39.230;9.122;2022-07-29T08:19:44;6.68;;;1.80;;
67597;SDS011;62026;39.230;9.122;2022-07-29T08:22:10;5.07;;;2.08;;
67597;SDS011;62026;39.230;9.122;2022-07-29T08:24:36;10.00;;;2.15;;
67597;SDS011;62026;39.230;9.122;2022-07-29T08:27:09;6.93;;;1.70;;
67597;SDS011;62026;39.230;9.122;2022-07-29T08:29:36;6.15;;;2.10;;
67597;SDS011;62026;39.230;9.122;2022-07-29T08:32:03;7.07;;;1.90;;
67597;SDS011;62026;39.230;9.122;2022-07-29T08:34:30;6.13;;;2.00;;
67597;SDS011;62026;39.230;9.122;2022-07-29T08:36:57;5.38;;;1.70;;
67597;SDS011;62026;39.230;9.122;2022-07-29T08:39:23;5.30;;;1.70;;
67597;SDS011;62026;39.230;9.122;2022-07-29T08:41:50;6.18;;;1.73;;
67597;SDS011;62026;39.230;9.122;2022-07-29T08:44:17;4.95;;;1.80;;
67597;SDS011;62026;39.230;9.122;2022-07-29T08:46:44;6.22;;;2.00;;
67597;SDS011;62026;39.230;9.122;2022-07-29T08:49:11;3.63;;;1.65;;
67597;SDS011;62026;39.230;9.122;2022-07-29T08:51:38;8.35;;;1.65;;
67597;SDS011;62026;39.230;9.122;2022-07-29T08:54:08;9.23;;;2.30;;
67597;SDS011;62026;39.230;9.122;2022-07-29T08:56:35;6.28;;;2.15;;
67597;SDS011;62026;39.230;9.122;2022-07-29T08:59:03;4.25;;;1.92;;
67597;SDS011;62026;39.230;9.122;2022-07-29T09:01:33;5.70;;;2.00;;
67597;SDS011;62026;39.230;9.122;2022-07-29T09:04:03;6.00;;;2.45;;
67597;SDS011;62026;39.230;9.122;2022-07-29T09:06:34;5.28;;;2.03;;
67597;SDS011;62026;39.230;9.122;2022-07-29T09:09:07;9.43;;;1.90;;
67597;SDS011;62026;39.230;9.122;2022-07-29T09:11:34;8.82;;;2.15;;
67597;SDS011;62026;39.230;9.122;2022-07-29T09:14:00;6.85;;;1.98;;
67597;SDS011;62026;39.230;9.122;2022-07-29T09:16:42;7.00;;;1.98;;
67597;SDS011;62026;39.230;9.122;2022-07-29T09:19:19;8.05;;;2.13;;
67597;SDS011;62026;39.230;9.122;2022-07-29T09:21:54;8.27;;;2.00;;
67597;SDS011;62026;39.230;9.122;2022-07-29T09:24:45;5.05;;;1.63;;
67597;SDS011;62026;39.230;9.122;2022-07-29T09:27:19;4.72;;;1.85;;
67597;SDS011;62026;39.230;9.122;2022-07-29T09:30:00;4.57;;;1.77;;
67597;SDS011;62026;39.230;9.122;2022-07-29T09:32:56;10.48;;;2.38;;
67597;SDS011;62026;39.230;9.122;2022-07-29T09:35:28;6.20;;;1.50;;
67597;SDS011;62026;39.230;9.122;2022-07-29T09:37:55;7.32;;;2.30;;
67597;SDS011;62026;39.230;9.122;2022-07-29T09:40:26;8.93;;;2.10;;
67597;SDS011;62026;39.230;9.122;2022-07-29T09:42:53;7.63;;;1.80;;
67597;SDS011;62026;39.230;9.122;2022-07-29T09:47:53;5.68;;;2.20;;
67597;SDS011;62026;39.230;9.122;2022-07-29T09:50:21;8.63;;;2.15;;
67597;SDS011;62026;39.230;9.122;2022-07-29T09:52:59;9.38;;;2.33;;
67597;SDS011;62026;39.230;9.122;2022-07-29T09:55:25;6.38;;;2.28;;
67597;SDS011;62026;39.230;9.122;2022-07-29T09:57:51;7.82;;;2.30;;
67597;SDS011;62026;39.230;9.122;2022-07-29T10:00:19;9.75;;;2.42;;
67597;SDS011;62026;39.230;9.122;2022-07-29T10:02:48;10.27;;;2.38;;
67597;SDS011;62026;39.230;9.122;2022-07-29T10:07:52;4.43;;;1.92;;
67597;SDS011;62026;39.230;9.122;2022-07-29T10:12:55;7.88;;;2.03;;
67597;SDS011;62026;39.230;9.122;2022-07-29T10:15:28;6.97;;;2.10;;
67597;SDS011;62026;39.230;9.122;2022-07-29T10:18:02;9.43;;;2.00;;
67597;SDS011;62026;39.230;9.122;2022-07-29T10:20:29;8.05;;;2.00;;
67597;SDS011;62026;39.230;9.122;2022-07-29T10:22:55;8.07;;;2.50;;
67597;SDS011;62026;39.230;9.122;2022-07-29T10:25:22;6.70;;;1.95;;
67597;SDS011;62026;39.230;9.122;2022-07-29T10:27:49;7.78;;;2.28;;
67597;SDS011;62026;39.230;9.122;2022-07-29T10:30:17;4.85;;;2.00;;
67597;SDS011;62026;39.230;9.122;2022-07-29T10:42:19;7.05;;;2.10;;
67597;SDS011;62026;39.230;9.122;2022-07-29T10:44:50;6.82;;;2.22;;
67597;SDS011;62026;39.230;9.122;2022-07-29T10:47:25;4.95;;;2.30;;
67597;SDS011;62026;39.230;9.122;2022-07-29T10:50:04;5.47;;;2.10;;
67597;SDS011;62026;39.230;9.122;2022-07-29T10:58:11;6.40;;;2.20;;
67597;SDS011;62026;39.230;9.122;2022-07-29T11:00:44;8.32;;;1.90;;
67597;SDS011;62026;39.230;9.122;2022-07-29T11:06:13;5.68;;;1.80;;
67597;SDS011;62026;39.230;9.122;2022-07-29T11:08:39;8.82;;;2.40;;
67597;SDS011;62026;39.230;9.122;2022-07-29T11:16:17;6.10;;;1.70;;
67597;SDS011;62026;39.230;9.122;2022-07-29T11:21:38;9.15;;;2.30;;
67597;SDS011;62026;39.230;9.122;2022-07-29T11:24:16;6.10;;;2.05;;
67597;SDS011;62026;39.230;9.122;2022-07-29T11:27:05;5.82;;;2.03;;
67597;SDS011;62026;39.230;9.122;2022-07-29T11:29:38;13.75;;;3.38;;
67597;SDS011;62026;39.230;9.122;2022-07-29T11:32:17;12.00;;;2.30;;
67597;SDS011;62026;39.230;9.122;2022-07-29T11:34:47;5.65;;;2.15;;
67597;SDS011;62026;39.230;9.122;2022-07-29T11:37:16;4.80;;;1.80;;
67597;SDS011;62026;39.230;9.122;2022-07-29T11:39:45;4.25;;;2.00;;
67597;SDS011;62026;39.230;9.122;2022-07-29T11:44:56;6.30;;;2.10;;
67597;SDS011;62026;39.230;9.122;2022-07-29T11:47:27;7.18;;;2.47;;
67597;SDS011;62026;39.230;9.122;2022-07-29T11:49:55;8.85;;;2.47;;
67597;SDS011;62026;39.230;9.122;2022-07-29T11:52:23;6.85;;;2.38;;
67597;SDS011;62026;39.230;9.122;2022-07-29T11:54:59;9.68;;;2.20;;
67597;SDS011;62026;39.230;9.122;2022-07-29T11:57:29;7.90;;;2.40;;
67597;SDS011;62026;39.230;9.122;2022-07-29T11:59:57;5.97;;;2.30;;
67597;SDS011;62026;39.230;9.122;2022-07-29T12:02:24;7.35;;;1.85;;
67597;SDS011;62026;39.230;9.122;2022-07-29T12:04:53;8.88;;;2.35;;
67597;SDS011;62026;39.230;9.122;2022-07-29T12:09:56;6.30;;;2.10;;
67597;SDS011;62026;39.230;9.122;2022-07-29T12:12:23;7.10;;;2.10;;
67597;SDS011;62026;39.230;9.122;2022-07-29T12:14:50;8.23;;;2.63;;
67597;SDS011;62026;39.230;9.122;2022-07-29T12:17:30;9.73;;;2.03;;
67597;SDS011;62026;39.230;9.122;2022-07-29T12:19:59;7.55;;;2.17;;
67597;SDS011;62026;39.230;9.122;2022-07-29T12:22:32;7.05;;;2.20;;
67597;SDS011;62026;39.230;9.122;2022-07-29T12:25:09;8.27;;;2.55;;
67597;SDS011;62026;39.230;9.122;2022-07-29T12:27:41;7.78;;;2.70;;
67597;SDS011;62026;39.230;9.122;2022-07-29T12:30:11;9.38;;;2.28;;
67597;SDS011;62026;39.230;9.122;2022-07-29T12:35:18;5.55;;;1.92;;
67597;SDS011;62026;39.230;9.122;2022-07-29T12:37:46;4.60;;;1.77;;
67597;SDS011;62026;39.230;9.122;2022-07-29T12:40:16;9.02;;;2.08;;
67597;SDS011;62026;39.230;9.122;2022-07-29T12:45:48;7.43;;;2.33;;
67597;SDS011;62026;39.230;9.122;2022-07-29T12:48:32;5.40;;;1.80;;
67597;SDS011;62026;39.230;9.122;2022-07-29T12:51:04;9.35;;;2.30;;
67597;SDS011;62026;39.230;9.122;2022-07-29T12:53:32;6.05;;;1.85;;
67597;SDS011;62026;39.230;9.122;2022-07-29T12:55:59;5.97;;;1.92;;
67597;SDS011;62026;39.230;9.122;2022-07-29T12:58:31;10.13;;;1.77;;
67597;SDS011;62026;39.230;9.122;2022-07-29T13:01:10;8.27;;;2.28;;
67597;SDS011;62026;39.230;9.122;2022-07-29T13:03:58;3.38;;;1.80;;
67597;SDS011;62026;39.230;9.122;2022-07-29T13:11:42;4.93;;;1.90;;
67597;SDS011;62026;39.230;9.122;2022-07-29T13:14:32;4.53;;;1.92;;
67597;SDS011;62026;39.230;9.122;2022-07-29T13:19:51;5.07;;;1.50;;
67597;SDS011;62026;39.230;9.122;2022-07-29T13:22:29;5.22;;;1.80;;
67597;SDS011;62026;39.230;9.122;2022-07-29T13:24:56;3.60;;;1.35;;
67597;SDS011;62026;39.230;9.122;2022-07-29T13:27:32;6.18;;;1.58;;
67597;SDS011;62026;39.230;9.122;2022-07-29T13:30:03;6.47;;;1.70;;
67597;SDS011;62026;39.230;9.122;2022-07-29T13:32:32;11.57;;;1.50;;
67597;SDS011;62026;39.230;9.122;2022-07-29T13:35:04;3.97;;;1.45;;
67597;SDS011;62026;39.230;9.122;2022-07-29T13:37:33;8.32;;;1.58;;
67597;SDS011;62026;39.230;9.122;2022-07-29T13:40:04;8.60;;;1.77;;
67597;SDS011;62026;39.230;9.122;2022-07-29T13:42:32;4.65;;;1.40;;
67597;SDS011;62026;39.230;9.122;2022-07-29T13:44:59;5.78;;;1.55;;
67597;SDS011;62026;39.230;9.122;2022-07-29T13:47:26;6.03;;;1.77;;
67597;SDS011;62026;39.230;9.122;2022-07-29T13:49:53;9.90;;;1.70;;
67597;SDS011;62026;39.230;9.122;2022-07-29T13:52:19;7.28;;;1.83;;
67597;SDS011;62026;39.230;9.122;2022-07-29T13:54:46;10.15;;;1.70;;
67597;SDS011;62026;39.230;9.122;2022-07-29T13:57:13;5.50;;;1.58;;
67597;SDS011;62026;39.230;9.122;2022-07-29T13:59:40;8.70;;;1.60;;
67597;SDS011;62026;39.230;9.122;2022-07-29T14:02:07;11.52;;;1.90;;
67597;SDS011;62026;39.230;9.122;2022-07-29T14:04:35;8.32;;;1.65;;
67597;SDS011;62026;39.230;9.122;2022-07-29T14:07:01;5.88;;;1.67;;
67597;SDS011;62026;39.230;9.122;2022-07-29T14:09:28;6.75;;;1.80;;
67597;SDS011;62026;39.230;9.122;2022-07-29T14:11:54;10.45;;;2.00;;
67597;SDS011;62026;39.230;9.122;2022-07-29T14:14:21;4.68;;;1.80;;
67597;SDS011;62026;39.230;9.122;2022-07-29T14:16:47;4.50;;;1.60;;
67597;SDS011;62026;39.230;9.122;2022-07-29T14:19:13;5.88;;;1.70;;
67597;SDS011;62026;39.230;9.122;2022-07-29T14:21:39;8.25;;;1.70;;
67597;SDS011;62026;39.230;9.122;2022-07-29T14:24:06;6.57;;;1.55;;
67597;SDS011;62026;39.230;9.122;2022-07-29T14:26:32;7.20;;;1.73;;
67597;SDS011;62026;39.230;9.122;2022-07-29T14:28:58;4.80;;;1.60;;
67597;SDS011;62026;39.230;9.122;2022-07-29T14:31:24;2.80;;;1.40;;
67597;SDS011;62026;39.230;9.122;2022-07-29T14:33:50;10.00;;;1.67;;
67597;SDS011;62026;39.230;9.122;2022-07-29T14:36:16;6.38;;;1.60;;
67597;SDS011;62026;39.230;9.122;2022-07-29T14:38:42;7.22;;;1.75;;
67597;SDS011;62026;39.230;9.122;2022-07-29T14:41:08;4.97;;;1.52;;
67597;SDS011;62026;39.230;9.122;2022-07-29T14:43:34;9.73;;;1.90;;
67597;SDS011;62026;39.230;9.122;2022-07-29T14:46:01;6.78;;;1.40;;
67597;SDS011;62026;39.230;9.122;2022-07-29T14:48:27;8.65;;;1.60;;
67597;SDS011;62026;39.230;9.122;2022-07-29T14:50:53;5.50;;;1.40;;
67597;SDS011;62026;39.230;9.122;2022-07-29T14:53:21;5.10;;;1.70;;
67597;SDS011;62026;39.230;9.122;2022-07-29T14:55:48;7.93;;;1.65;;
67597;SDS011;62026;39.230;9.122;2022-07-29T14:58:14;7.80;;;1.50;;
67597;SDS011;62026;39.230;9.122;2022-07-29T15:00:40;3.78;;;1.65;;
67597;SDS011;62026;39.230;9.122;2022-07-29T15:03:06;5.47;;;1.70;;
67597;SDS011;62026;39.230;9.122;2022-07-29T15:05:35;6.13;;;1.63;;
67597;SDS011;62026;39.230;9.122;2022-07-29T15:08:02;7.57;;;1.73;;
67597;SDS011;62026;39.230;9.122;2022-07-29T15:10:28;8.18;;;1.80;;
67597;SDS011;62026;39.230;9.122;2022-07-29T15:12:55;4.78;;;1.75;;
67597;SDS011;62026;39.230;9.122;2022-07-29T15:15:21;7.82;;;1.92;;
67597;SDS011;62026;39.230;9.122;2022-07-29T15:17:47;7.32;;;1.80;;
67597;SDS011;62026;39.230;9.122;2022-07-29T15:20:13;7.60;;;1.60;;
67597;SDS011;62026;39.230;9.122;2022-07-29T15:22:40;5.70;;;1.70;;
67597;SDS011;62026;39.230;9.122;2022-07-29T15:25:07;7.68;;;1.70;;
67597;SDS011;62026;39.230;9.122;2022-07-29T15:27:33;6.40;;;1.55;;
67597;SDS011;62026;39.230;9.122;2022-07-29T15:30:00;6.85;;;2.15;;
67597;SDS011;62026;39.230;9.122;2022-07-29T15:32:26;6.30;;;1.60;;
67597;SDS011;62026;39.230;9.122;2022-07-29T15:34:53;5.47;;;1.50;;
67597;SDS011;62026;39.230;9.122;2022-07-29T15:37:20;7.25;;;1.67;;
67597;SDS011;62026;39.230;9.122;2022-07-29T15:39:47;5.68;;;1.67;;
67597;SDS011;62026;39.230;9.122;2022-07-29T15:42:14;4.05;;;1.52;;
67597;SDS011;62026;39.230;9.122;2022-07-29T15:44:41;7.22;;;1.75;;
67597;SDS011;62026;39.230;9.122;2022-07-29T15:47:08;5.80;;;1.80;;
67597;SDS011;62026;39.230;9.122;2022-07-29T15:49:37;7.45;;;1.58;;
67597;SDS011;62026;39.230;9.122;2022-07-29T15:52:07;4.70;;;1.38;;
67597;SDS011;62026;39.230;9.122;2022-07-29T15:54:36;4.00;;;1.48;;
67597;SDS011;62026;39.230;9.122;2022-07-29T15:57:05;6.78;;;1.58;;
67597;SDS011;62026;39.230;9.122;2022-07-29T15:59:33;4.57;;;1.30;;
67597;SDS011;62026;39.230;9.122;2022-07-29T16:02:00;5.55;;;1.75;;
67597;SDS011;62026;39.230;9.122;2022-07-29T16:04:28;5.43;;;1.80;;
67597;SDS011;62026;39.230;9.122;2022-07-29T16:06:55;2.92;;;1.35;;
67597;SDS011;62026;39.230;9.122;2022-07-29T16:09:22;4.93;;;1.40;;
67597;SDS011;62026;39.230;9.122;2022-07-29T16:11:50;9.18;;;1.95;;